createdAt,value
2022-11-14T00:00:37.641Z,2.98
2022-11-14T00:03:12.826Z,3.10
2022-11-14T00:05:50.101Z,3.15
2022-11-14T00:08:22.221Z,3.20
2022-11-14T00:11:04.589Z,3.22
2022-11-14T00:13:37.798Z,3.16
2022-11-14T00:16:11.676Z,3.20
2022-11-14T00:18:39.768Z,3.28
2022-11-14T00:21:10.940Z,3.23
2022-11-14T00:23:39.097Z,3.33
2022-11-14T00:26:08.269Z,3.41
2022-11-14T00:28:35.371Z,3.36
2022-11-14T00:31:12.239Z,3.34
2022-11-14T00:33:41.850Z,3.35
2022-11-14T00:36:09.209Z,3.31
2022-11-14T00:38:54.121Z,3.44
2022-11-14T00:41:23.495Z,3.39
2022-11-14T00:43:50.602Z,3.43
2022-11-14T00:46:24.627Z,3.39
2022-11-14T00:48:51.680Z,3.48
2022-11-14T00:51:18.733Z,3.43
2022-11-14T00:53:49.872Z,3.40
2022-11-14T00:56:21.025Z,3.41
2022-11-14T00:58:52.125Z,3.42
2022-11-14T01:01:23.356Z,3.35
2022-11-14T01:03:57.520Z,3.38
2022-11-14T01:06:24.749Z,3.41
2022-11-14T01:08:52.893Z,3.40
2022-11-14T01:11:22.521Z,3.43
2022-11-14T01:13:56.475Z,3.47
2022-11-14T01:16:24.537Z,3.52
2022-11-14T01:18:58.628Z,3.56
2022-11-14T01:21:26.740Z,3.55
2022-11-14T01:23:53.763Z,3.58
2022-11-14T01:26:28.029Z,3.56
2022-11-14T01:28:58.154Z,3.51
2022-11-14T01:31:39.612Z,3.54
2022-11-14T01:34:10.051Z,3.48
2022-11-14T01:36:37.058Z,3.50
2022-11-14T01:39:04.298Z,3.43
2022-11-14T01:41:36.361Z,3.42
2022-11-14T01:44:03.483Z,3.42
2022-11-14T01:46:39.131Z,3.43
2022-11-14T01:49:15.348Z,3.41
2022-11-14T01:52:04.019Z,3.38
2022-11-14T01:54:34.878Z,3.45
2022-11-14T01:57:04.148Z,3.46
2022-11-14T01:59:40.353Z,3.43
2022-11-14T02:02:17.772Z,3.38
2022-11-14T02:04:52.284Z,3.31
2022-11-14T02:07:20.096Z,3.35
2022-11-14T02:09:49.159Z,3.37
2022-11-14T02:12:24.537Z,3.40
2022-11-14T02:14:59.787Z,3.36
2022-11-14T02:17:32.905Z,3.36
2022-11-14T02:20:32.870Z,3.33
2022-11-14T02:22:59.903Z,3.33
2022-11-14T02:25:27.502Z,3.33
2022-11-14T02:27:57.897Z,3.36
2022-11-14T02:30:27.907Z,3.44
2022-11-14T02:33:11.926Z,3.35
2022-11-14T02:35:51.369Z,3.32
2022-11-14T02:38:33.682Z,3.37
2022-11-14T02:41:07.860Z,3.23
2022-11-14T02:43:46.181Z,3.20
2022-11-14T02:46:20.396Z,3.20
2022-11-14T02:48:47.376Z,3.19
2022-11-14T02:51:27.630Z,3.26
2022-11-14T02:54:09.763Z,3.28
2022-11-14T02:56:38.801Z,3.29
2022-11-14T02:59:06.869Z,3.32
2022-11-14T03:01:41.106Z,3.36
2022-11-14T03:04:09.090Z,3.38
2022-11-14T03:06:36.221Z,3.31
2022-11-14T03:09:11.224Z,3.34
2022-11-14T03:11:39.313Z,3.26
2022-11-14T03:14:06.360Z,3.23
2022-11-14T03:16:33.332Z,3.32
2022-11-14T03:19:07.388Z,3.29
2022-11-14T03:21:34.468Z,3.28
2022-11-14T03:24:02.559Z,3.33
2022-11-14T03:26:31.648Z,3.34
2022-11-14T03:28:58.669Z,3.36
2022-11-14T03:31:28.684Z,3.33
2022-11-14T03:34:11.121Z,3.39
2022-11-14T03:36:38.665Z,3.35
2022-11-14T03:39:06.215Z,3.29
2022-11-14T03:41:35.311Z,3.40
2022-11-14T03:44:05.435Z,3.38
2022-11-14T03:46:38.629Z,3.37
2022-11-14T03:49:05.714Z,3.42
2022-11-14T03:51:52.055Z,3.47
2022-11-14T03:54:22.090Z,3.40
2022-11-14T03:56:49.149Z,3.44
2022-11-14T03:59:32.484Z,3.46
2022-11-14T04:02:01.577Z,3.52
2022-11-14T04:04:28.686Z,3.51
2022-11-14T04:06:55.801Z,3.49
2022-11-14T04:09:27.844Z,3.54
2022-11-14T04:11:55.944Z,3.55
2022-11-14T04:14:22.945Z,3.51
2022-11-14T04:16:53.040Z,3.56
2022-11-14T04:19:21.100Z,3.58
2022-11-14T04:21:49.133Z,3.59
2022-11-14T04:24:17.182Z,3.58
2022-11-14T04:26:47.278Z,3.63
2022-11-14T04:29:25.705Z,3.63
2022-11-14T04:31:53.767Z,3.61
2022-11-14T04:34:20.860Z,3.61
2022-11-14T04:36:47.927Z,3.57
2022-11-14T04:39:14.851Z,3.59
2022-11-14T04:41:44.119Z,3.60
2022-11-14T04:44:12.188Z,3.62
2022-11-14T04:46:40.359Z,3.65
2022-11-14T04:49:07.431Z,3.63
2022-11-14T04:51:37.487Z,3.51
2022-11-14T04:54:11.535Z,3.58
2022-11-14T04:56:43.623Z,3.58
2022-11-14T04:59:12.507Z,3.61
2022-11-14T05:01:51.063Z,3.62
2022-11-14T05:04:20.046Z,3.68
2022-11-14T05:06:48.083Z,3.68
2022-11-14T05:09:21.000Z,3.67
2022-11-14T05:11:48.129Z,3.63
2022-11-14T05:14:15.270Z,3.69
2022-11-14T05:16:45.360Z,3.64
2022-11-14T05:19:13.440Z,3.61
2022-11-14T05:21:44.585Z,3.66
2022-11-14T05:24:13.634Z,3.55
2022-11-14T05:26:48.772Z,3.57
2022-11-14T05:29:20.047Z,3.59
2022-11-14T05:31:48.113Z,3.60
2022-11-14T05:34:15.094Z,3.64
2022-11-14T05:36:43.158Z,3.68
2022-11-14T05:39:11.262Z,3.64
2022-11-14T05:42:11.780Z,3.67
2022-11-14T05:44:39.846Z,3.64
2022-11-14T05:47:08.916Z,3.70
2022-11-14T05:49:36.052Z,3.76
2022-11-14T05:52:05.307Z,3.77
2022-11-14T05:54:49.642Z,3.76
2022-11-14T05:57:17.842Z,3.81
2022-11-14T05:59:44.828Z,3.81
2022-11-14T06:02:12.893Z,3.90
2022-11-14T06:04:43.031Z,3.90
2022-11-14T06:07:14.137Z,3.90
2022-11-14T06:09:46.630Z,3.91
2022-11-14T06:12:17.741Z,3.87
2022-11-14T06:15:01.446Z,3.86
2022-11-14T06:17:28.441Z,3.78
2022-11-14T06:19:55.557Z,3.82
2022-11-14T06:22:23.612Z,3.85
2022-11-14T06:24:52.695Z,3.81
2022-11-14T06:27:37.032Z,3.81
2022-11-14T06:30:12.857Z,3.83
2022-11-14T06:32:39.939Z,3.90
2022-11-14T06:35:11.113Z,3.87
2022-11-14T06:37:44.429Z,3.85
2022-11-14T06:40:17.592Z,3.86
2022-11-14T06:42:56.047Z,3.80
2022-11-14T06:45:23.104Z,3.84
2022-11-14T06:47:50.713Z,3.89
2022-11-14T06:50:19.817Z,3.86
2022-11-14T06:52:48.922Z,3.82
2022-11-14T06:55:18.635Z,3.83
2022-11-14T06:57:56.402Z,3.79
2022-11-14T07:00:24.580Z,3.88
2022-11-14T07:03:17.405Z,3.92
2022-11-14T07:05:44.647Z,3.92
2022-11-14T07:08:21.171Z,3.91
2022-11-14T07:10:49.475Z,3.92
2022-11-14T07:13:22.642Z,3.90
2022-11-14T07:15:54.044Z,3.96
2022-11-14T07:18:26.347Z,4.05
2022-11-14T07:21:15.337Z,4.00
2022-11-14T07:23:43.018Z,3.99
2022-11-14T07:26:11.764Z,4.02
2022-11-14T07:28:51.794Z,4.19
2022-11-14T07:31:25.048Z,4.21
2022-11-14T07:33:53.185Z,4.29
2022-11-14T07:36:29.064Z,4.29
2022-11-14T07:39:07.344Z,4.33
2022-11-14T07:41:41.386Z,4.36
2022-11-14T07:44:08.564Z,4.28
2022-11-14T07:46:37.832Z,4.36
2022-11-14T07:49:04.916Z,4.30
2022-11-14T07:51:34.089Z,4.28
2022-11-14T07:54:03.165Z,4.22
2022-11-14T07:56:30.260Z,4.34
2022-11-14T07:58:58.476Z,4.39
2022-11-14T08:01:25.584Z,4.48
2022-11-14T08:03:52.675Z,4.60
2022-11-14T08:06:26.330Z,4.60
2022-11-14T08:08:53.337Z,4.60
2022-11-14T08:11:41.361Z,4.65
2022-11-14T08:14:16.416Z,4.63
2022-11-14T08:16:44.421Z,4.69
2022-11-14T08:19:13.552Z,4.83
2022-11-14T08:21:43.108Z,4.83
2022-11-14T08:24:10.229Z,4.87
2022-11-14T08:26:47.407Z,4.92
2022-11-14T08:29:27.689Z,4.99
2022-11-14T08:31:59.953Z,5.04
2022-11-14T08:34:29.516Z,5.17
2022-11-14T08:36:58.688Z,5.20
2022-11-14T08:39:26.716Z,5.26
2022-11-14T08:41:53.782Z,5.38
2022-11-14T08:44:22.975Z,5.42
2022-11-14T08:46:51.953Z,5.33
2022-11-14T08:49:20.082Z,5.44
2022-11-14T08:51:52.845Z,5.45
2022-11-14T08:54:28.129Z,5.53
2022-11-14T08:56:56.227Z,5.45
2022-11-14T08:59:28.348Z,5.50
2022-11-14T09:02:01.590Z,5.50
2022-11-14T09:04:38.244Z,5.55
2022-11-14T09:07:12.514Z,5.60
2022-11-14T09:09:41.726Z,5.67
2022-11-14T09:12:09.765Z,5.68
2022-11-14T09:14:36.873Z,5.66
2022-11-14T09:17:06.046Z,5.90
2022-11-14T09:19:36.553Z,5.78
2022-11-14T09:22:07.613Z,5.71
2022-11-14T09:24:48.021Z,5.73
2022-11-14T09:27:21.060Z,5.84
2022-11-14T09:29:48.000Z,6.03
2022-11-14T09:32:27.305Z,6.31
2022-11-14T09:35:01.220Z,6.51
2022-11-14T09:37:30.387Z,7.03
2022-11-14T09:39:57.569Z,7.63
2022-11-14T09:43:01.906Z,8.40
2022-11-14T09:45:33.849Z,8.41
2022-11-14T09:48:26.171Z,8.52
2022-11-14T09:51:06.259Z,8.67
2022-11-14T09:53:54.228Z,8.99
2022-11-14T09:56:27.093Z,9.79
2022-11-14T09:58:56.794Z,10.19
2022-11-14T10:01:42.368Z,9.86
2022-11-14T10:04:17.413Z,10.03
2022-11-14T10:07:02.337Z,9.86
2022-11-14T10:09:44.474Z,9.73
2022-11-14T10:12:32.309Z,10.10
2022-11-14T10:15:32.600Z,9.88
2022-11-14T10:18:29.518Z,10.49
2022-11-14T10:21:30.701Z,11.20
2022-11-14T10:24:15.933Z,11.41
2022-11-14T10:27:01.359Z,11.91
2022-11-14T10:29:39.213Z,13.22
2022-11-14T10:32:24.831Z,12.86
2022-11-14T10:35:20.841Z,13.63
2022-11-14T10:38:00.481Z,14.24
2022-11-14T10:40:45.706Z,14.87
2022-11-14T10:43:27.776Z,14.41
2022-11-14T10:46:11.160Z,14.63
2022-11-14T10:48:45.035Z,15.14
2022-11-14T10:51:22.955Z,14.56
2022-11-14T10:54:01.875Z,14.80
2022-11-14T10:56:31.325Z,14.40
2022-11-14T10:59:09.144Z,14.44
2022-11-14T11:01:59.063Z,15.36
2022-11-14T11:04:29.326Z,14.78
2022-11-14T11:07:36.254Z,14.29
2022-11-14T11:10:41.253Z,15.16
2022-11-14T11:13:28.017Z,14.71
2022-11-14T11:15:59.397Z,15.18
2022-11-14T11:18:32.067Z,14.96
2022-11-14T11:21:15.881Z,15.15
2022-11-14T11:23:54.911Z,14.11
2022-11-14T11:26:25.669Z,14.74
2022-11-14T11:29:12.214Z,14.42
2022-11-14T11:31:58.204Z,15.38
2022-11-14T11:34:31.650Z,14.84
2022-11-14T11:37:23.377Z,14.96
2022-11-14T11:39:55.407Z,15.56
2022-11-14T11:45:39.043Z,16.45
2022-11-14T11:48:15.375Z,16.60
2022-11-14T11:50:43.434Z,16.87
2022-11-14T11:53:30.359Z,16.18
2022-11-14T11:56:07.462Z,15.29
2022-11-14T11:58:45.957Z,15.40
2022-11-14T12:01:13.932Z,15.10
2022-11-14T12:03:46.903Z,15.20
2022-11-14T12:06:27.628Z,16.04
2022-11-14T12:09:18.510Z,16.64
2022-11-14T12:11:53.627Z,17.02
2022-11-14T12:14:48.345Z,16.45
2022-11-14T12:17:23.529Z,16.87
2022-11-14T12:20:13.524Z,17.37
2022-11-14T12:23:20.851Z,17.64
2022-11-14T12:26:09.181Z,16.85
2022-11-14T12:29:01.785Z,16.11
2022-11-14T12:31:34.653Z,15.53
2022-11-14T12:34:20.916Z,16.72
2022-11-14T12:36:50.371Z,16.45
2022-11-14T12:39:35.052Z,17.91
2022-11-14T12:42:08.077Z,17.25
2022-11-14T12:44:40.075Z,17.90
2022-11-14T12:47:08.176Z,18.06
2022-11-14T12:49:53.532Z,18.77
2022-11-14T12:52:45.253Z,19.69
2022-11-14T12:55:27.788Z,18.91
2022-11-14T12:58:10.549Z,18.50
2022-11-14T13:00:50.809Z,19.19
2022-11-14T13:03:48.729Z,19.67
2022-11-14T13:06:42.926Z,20.04
2022-11-14T13:09:53.486Z,20.46
2022-11-14T13:12:52.072Z,19.37
2022-11-14T13:16:06.252Z,18.18
2022-11-14T13:22:15.851Z,18.07
2022-11-14T13:25:02.035Z,18.83
2022-11-14T13:28:05.371Z,19.64
2022-11-14T13:31:02.761Z,18.38
2022-11-14T13:33:51.477Z,18.18
2022-11-14T13:36:45.326Z,17.84
2022-11-14T13:39:31.179Z,17.31
2022-11-14T13:42:18.049Z,16.54
2022-11-14T13:44:48.286Z,17.15
2022-11-14T13:47:56.006Z,16.96
2022-11-14T13:50:37.076Z,17.57
2022-11-14T13:53:15.582Z,17.80
2022-11-14T13:56:07.353Z,17.62
2022-11-14T13:59:06.843Z,17.32
2022-11-14T14:01:41.082Z,16.44
2022-11-14T14:04:45.440Z,16.42
2022-11-14T14:07:36.462Z,16.66
2022-11-14T14:10:34.370Z,16.88
2022-11-14T14:13:43.743Z,16.75
2022-11-14T14:16:15.684Z,16.66
2022-11-14T14:19:15.219Z,15.91
2022-11-14T14:22:22.255Z,15.97
2022-11-14T14:25:35.418Z,15.74
2022-11-14T14:28:23.367Z,15.60
2022-11-14T14:31:09.038Z,16.14
2022-11-14T14:33:48.016Z,15.87
2022-11-14T14:36:25.976Z,15.08
2022-11-14T14:39:22.577Z,14.74
2022-11-14T14:42:02.332Z,14.19
2022-11-14T14:44:49.010Z,13.46
2022-11-14T14:47:43.948Z,12.97
2022-11-14T14:51:06.172Z,12.47
2022-11-14T14:53:35.779Z,11.92
2022-11-14T14:56:19.242Z,11.70
2022-11-14T14:58:51.384Z,11.46
2022-11-14T15:01:36.119Z,11.11
2022-11-14T15:04:07.503Z,10.85
2022-11-14T15:06:40.003Z,10.66
2022-11-14T15:09:20.196Z,10.37
2022-11-14T15:12:03.079Z,10.25
2022-11-14T15:14:36.096Z,10.12
2022-11-14T15:17:05.589Z,10.07
2022-11-14T15:19:41.336Z,10.08
2022-11-14T15:22:20.236Z,10.06
2022-11-14T15:25:06.772Z,10.08
2022-11-14T15:28:01.021Z,10.02
2022-11-14T15:30:31.528Z,10.00
2022-11-14T15:33:05.024Z,10.00
2022-11-14T15:35:37.783Z,9.98
2022-11-14T15:38:42.718Z,9.89
2022-11-14T15:41:34.736Z,9.79
2022-11-14T15:44:05.635Z,9.73
2022-11-14T15:46:41.208Z,9.70
2022-11-14T15:49:15.509Z,9.65
2022-11-14T15:52:03.707Z,9.39
2022-11-14T15:54:33.360Z,9.41
2022-11-14T15:57:06.539Z,9.39
2022-11-14T15:59:35.061Z,9.23
2022-11-14T16:02:32.344Z,9.16
2022-11-14T16:05:01.219Z,9.08
2022-11-14T16:07:30.360Z,9.13
2022-11-14T16:09:58.468Z,9.07
2022-11-14T16:12:33.329Z,9.02
2022-11-14T16:15:00.325Z,8.95
2022-11-14T16:17:27.375Z,8.91
2022-11-14T16:20:07.107Z,8.83
2022-11-14T16:22:41.327Z,8.77
2022-11-14T16:25:22.865Z,8.74
2022-11-14T16:27:54.450Z,8.69
2022-11-14T16:30:26.241Z,8.71
2022-11-14T16:32:53.352Z,8.67
2022-11-14T16:35:26.305Z,8.59
2022-11-14T16:37:55.941Z,8.58
2022-11-14T16:40:27.276Z,8.54
2022-11-14T16:42:55.918Z,8.54
2022-11-14T16:45:24.551Z,8.48
2022-11-14T16:47:51.819Z,8.40
2022-11-14T16:50:21.969Z,8.45
2022-11-14T16:52:49.505Z,8.43
2022-11-14T16:55:23.607Z,8.42
2022-11-14T16:57:51.836Z,8.31
2022-11-14T17:00:19.020Z,8.27
2022-11-14T17:03:00.232Z,8.19
2022-11-14T17:05:29.390Z,8.11
2022-11-14T17:08:01.289Z,8.03
2022-11-14T17:10:30.367Z,7.94
2022-11-14T17:12:57.410Z,7.85
2022-11-14T17:15:24.398Z,7.76
2022-11-14T17:17:51.508Z,7.85
2022-11-14T17:20:25.264Z,7.83
2022-11-14T17:22:53.517Z,7.68
2022-11-14T17:25:23.664Z,7.56
2022-11-14T17:27:51.620Z,7.46
2022-11-14T17:30:29.222Z,7.41
2022-11-14T17:32:59.413Z,7.36
2022-11-14T17:35:32.418Z,7.30
2022-11-14T17:38:00.450Z,7.27
2022-11-14T17:40:28.196Z,7.26
2022-11-14T17:42:55.676Z,7.24
2022-11-14T17:45:25.557Z,7.26
2022-11-14T17:47:53.802Z,7.23
2022-11-14T17:50:22.122Z,7.26
2022-11-14T17:52:56.037Z,7.29
2022-11-14T17:55:39.886Z,7.35
2022-11-14T17:58:32.376Z,7.35
2022-11-14T18:01:32.067Z,7.34
2022-11-14T18:04:06.188Z,7.27
2022-11-14T18:06:34.897Z,7.26
2022-11-14T18:09:15.367Z,7.17
2022-11-14T18:11:44.832Z,7.13
2022-11-14T18:14:18.183Z,7.03
2022-11-14T18:17:12.394Z,7.04
2022-11-14T18:19:40.622Z,6.99
2022-11-14T18:22:10.003Z,6.92
2022-11-14T18:24:37.309Z,6.85
2022-11-14T18:27:06.511Z,6.73
2022-11-14T18:29:39.925Z,6.60
2022-11-14T18:32:08.293Z,6.47
2022-11-14T18:34:39.327Z,6.41
2022-11-14T18:37:07.307Z,6.29
2022-11-14T18:39:35.847Z,6.18
2022-11-14T18:42:03.123Z,6.06
2022-11-14T18:44:30.825Z,6.00
2022-11-14T18:46:58.279Z,5.97
2022-11-14T18:49:26.857Z,5.90
2022-11-14T18:51:56.397Z,5.75
2022-11-14T18:54:24.537Z,5.74
2022-11-14T18:56:52.896Z,5.69
2022-11-14T18:59:20.331Z,5.62
2022-11-14T19:01:47.520Z,5.57
2022-11-14T19:04:17.858Z,5.58
2022-11-14T19:06:46.923Z,5.56
2022-11-14T19:09:21.663Z,5.48
2022-11-14T19:12:08.433Z,5.42
2022-11-14T19:14:38.115Z,5.40
2022-11-14T19:17:07.712Z,5.40
2022-11-14T19:19:35.192Z,5.38
2022-11-14T19:22:02.797Z,5.38
2022-11-14T19:24:32.864Z,5.41
2022-11-14T19:27:01.849Z,5.45
2022-11-14T19:29:30.259Z,5.49
2022-11-14T19:31:57.798Z,5.55
2022-11-14T19:34:26.656Z,5.58
2022-11-14T19:37:00.416Z,5.59
2022-11-14T19:39:29.998Z,5.65
2022-11-14T19:42:03.189Z,5.70
2022-11-14T19:44:40.789Z,5.59
2022-11-14T19:47:08.679Z,5.57
2022-11-14T19:49:35.835Z,5.57
2022-11-14T19:52:03.181Z,5.61
2022-11-14T19:54:31.394Z,5.55
2022-11-14T19:56:59.900Z,5.55
2022-11-14T19:59:30.915Z,5.47
2022-11-14T20:01:58.262Z,5.46
2022-11-14T20:04:28.338Z,5.49
2022-11-14T20:06:57.795Z,5.47
2022-11-14T20:09:27.240Z,5.56
2022-11-14T20:11:54.959Z,5.51
2022-11-14T20:14:25.263Z,5.39
2022-11-14T20:16:53.668Z,5.43
2022-11-14T20:19:22.102Z,5.50
2022-11-14T20:21:51.500Z,5.48
2022-11-14T20:24:22.315Z,5.63
2022-11-14T20:26:54.186Z,5.46
2022-11-14T20:29:22.832Z,5.37
2022-11-14T20:31:50.454Z,5.36
2022-11-14T20:34:17.797Z,5.30
2022-11-14T20:37:09.760Z,5.25
2022-11-14T20:39:34.600Z,5.04
2022-11-14T20:42:08.917Z,4.99
2022-11-14T20:44:37.247Z,4.97
2022-11-14T20:47:11.175Z,4.93
2022-11-14T20:49:39.324Z,5.06
2022-11-14T20:52:08.475Z,5.16
2022-11-14T20:54:36.155Z,5.21
2022-11-14T20:57:05.700Z,5.24
2022-11-14T20:59:33.577Z,5.09
2022-11-14T21:02:04.840Z,4.98
2022-11-14T21:04:32.067Z,5.00
2022-11-14T21:07:00.550Z,4.89
2022-11-14T21:09:32.007Z,4.76
2022-11-14T21:11:59.561Z,4.73
2022-11-14T21:14:26.649Z,4.69
2022-11-14T21:16:53.905Z,4.61
2022-11-14T21:19:23.033Z,4.55
2022-11-14T21:21:52.157Z,4.47
2022-11-14T21:24:19.477Z,4.47
2022-11-14T21:26:48.779Z,4.37
2022-11-14T21:29:45.261Z,4.30
2022-11-14T21:32:14.353Z,4.30
2022-11-14T21:34:56.162Z,4.21
2022-11-14T21:37:23.399Z,4.23
2022-11-14T21:39:51.633Z,4.32
2022-11-14T21:42:24.651Z,4.24
2022-11-14T21:44:58.316Z,4.06
2022-11-14T21:47:35.345Z,4.08
2022-11-14T21:50:02.526Z,3.98
2022-11-14T21:52:38.306Z,4.02
2022-11-14T21:55:06.901Z,3.97
2022-11-14T21:57:33.957Z,3.88
2022-11-14T22:00:07.481Z,3.87
2022-11-14T22:02:56.913Z,3.90
2022-11-14T22:05:25.930Z,4.13
2022-11-14T22:08:09.417Z,4.12
2022-11-14T22:10:43.555Z,4.06
2022-11-14T22:13:11.641Z,4.16
2022-11-14T22:15:38.705Z,4.16
2022-11-14T22:18:05.748Z,4.10
2022-11-14T22:20:33.878Z,4.12
2022-11-14T22:23:02.018Z,4.09
2022-11-14T22:25:29.057Z,4.07
2022-11-14T22:28:03.321Z,3.92
2022-11-14T22:30:30.513Z,3.86
2022-11-14T22:33:00.684Z,3.86
2022-11-14T22:35:27.722Z,3.98
2022-11-14T22:37:57.893Z,3.94
2022-11-14T22:40:31.240Z,3.94
2022-11-14T22:43:05.470Z,3.95
2022-11-14T22:45:38.624Z,3.99
2022-11-14T22:48:05.908Z,3.87
2022-11-14T22:50:34.026Z,3.98
2022-11-14T22:53:02.109Z,4.00
2022-11-14T22:55:30.185Z,3.94
2022-11-14T22:57:59.072Z,3.90
2022-11-14T23:00:26.193Z,3.75
2022-11-14T23:02:57.213Z,3.82
2022-11-14T23:05:24.278Z,3.81
2022-11-14T23:07:51.300Z,3.74
2022-11-14T23:10:22.383Z,3.69
2022-11-14T23:12:52.388Z,3.76
2022-11-14T23:15:19.396Z,3.76
2022-11-14T23:17:47.114Z,3.81
2022-11-14T23:20:19.389Z,3.87
2022-11-14T23:22:46.892Z,3.86
2022-11-14T23:25:17.124Z,3.74
2022-11-14T23:27:51.342Z,3.77
2022-11-14T23:30:19.391Z,3.82
2022-11-14T23:32:47.492Z,3.77
2022-11-14T23:35:14.535Z,3.81
2022-11-14T23:37:41.501Z,3.78
2022-11-14T23:48:06.902Z,3.69
2022-11-14T23:50:36.048Z,3.78
2022-11-14T23:53:07.404Z,3.78
2022-11-14T23:55:36.596Z,3.66
2022-11-14T23:58:04.759Z,3.74
